Time;durP1;ratioP1;P1;durP2;ratioP2;P2;SDS_P1;SDS_P2;PMS_P1;PMS_P2;Temp;Humidity;BMP_temperature;BMP_pressure;BME280_temperature;BME280_humidity;BME280_pressure;Samples;Min_cycle;Max_cycle;Signal;HPM_P1;HPM_P2
2022/10/10 00:01:13;;;;;;;;;;;;;;;12.11;87.55;96567.38;4892327;29;19968;-74
2022/10/10 00:03:39;;;;;;;;;;;;;;;12.11;87.76;96570.03;4894551;29;19954;-74
2022/10/10 00:06:06;;;;;;;;;;;;;;;12.10;87.78;96569.22;4890435;29;20339;-74
2022/10/10 00:08:32;;;;;;;;;;;;;;;12.09;88.35;96564.97;4892340;29;19975;-74
2022/10/10 00:10:58;;;;;;;;;;;;;;;12.09;87.67;96564.97;4890065;29;19979;-75
2022/10/10 00:13:24;;;;;;;;;;;;;;;12.08;87.91;96567.84;4894701;29;20054;-74
2022/10/10 00:15:49;;;;;;;;;;;;;;;12.06;87.76;96565.44;4892058;29;19970;-74
2022/10/10 00:18:16;;;;;;;;;;;;;;;12.05;87.94;96555.94;4891011;29;20043;-74
2022/10/10 00:20:42;;;;;;;;;;;;;;;12.06;88.08;96564.66;4893662;29;20347;-74
2022/10/10 00:23:07;;;;;;;;;;;;;;;12.05;88.20;96557.78;4893892;29;19966;-74
2022/10/10 00:25:35;;;;;;;;;;;;;;;12.05;88.03;96557.78;4885685;29;19957;-74
2022/10/10 00:28:01;;;;;;;;;;;;;;;12.04;88.09;96556.19;4889380;29;19959;-74
2022/10/10 00:30:27;;;;;;;;;;;;;;;12.03;88.17;96565.88;4886968;29;19955;-74
2022/10/10 00:32:53;;;;;;;;;;;;;;;12.02;88.25;96559.03;4887510;29;19977;-75
2022/10/10 00:35:19;;;;;;;;;;;;;;;12.01;88.37;96560.06;4894214;29;20071;-74
2022/10/10 00:37:45;;;;;;;;;;;;;;;12.01;88.71;96569.75;4896753;29;20003;-75
2022/10/10 00:40:11;;;;;;;;;;;;;;;12.00;88.59;96568.97;4888681;29;20016;-74
2022/10/10 00:42:37;;;;;;;;;;;;;;;11.97;89.45;96566.78;4891791;29;19964;-74
2022/10/10 00:45:20;;;;;;;;;;;;;;;11.91;89.10;96560.59;4891878;29;20443;-74
2022/10/10 00:47:47;;;;;;;;;;;;;;;11.86;89.86;96568.28;4894455;29;19964;-74
2022/10/10 00:50:13;;;;;;;;;;;;;;;11.81;89.56;96556.88;4890571;29;19961;-75
2022/10/10 00:52:39;;;;;;;;;;;;;;;11.78;89.76;96561.53;4892250;29;19997;-74
2022/10/10 00:55:05;;;;;;;;;;;;;;;11.76;89.81;96563.59;4891278;29;19989;-74
2022/10/10 00:57:31;;;;;;;;;;;;;;;11.76;90.75;96557.53;4891936;29;20022;-74
2022/10/10 00:59:57;;;;;;;;;;;;;;;11.73;90.88;96560.59;4889964;29;19974;-74
2022/10/10 01:02:23;;;;;;;;;;;;;;;11.72;91.00;96561.63;4893187;29;19957;-74
2022/10/10 01:04:49;;;;;;;;;;;;;;;11.71;91.11;96557.41;4891670;29;20001;-74
2022/10/10 01:07:21;;;;;;;;;;;;;;;11.71;90.60;96555.56;4891009;29;19990;-74
2022/10/10 01:09:47;;;;;;;;;;;;;;;11.69;90.51;96547.09;4890936;29;19959;-75
2022/10/10 01:12:22;;;;;;;;;;;;;;;11.68;90.48;96553.38;4892611;29;20416;-75
2022/10/10 01:15:07;;;;;;;;;;;;;;;11.68;92.19;96556.03;4889453;29;20316;-74
2022/10/10 01:17:33;;;;;;;;;;;;;;;11.65;90.28;96545.94;4888607;29;19967;-74
2022/10/10 01:20:17;;;;;;;;;;;;;;;11.68;90.69;96547.34;4891347;29;19975;-74
2022/10/10 01:22:49;;;;;;;;;;;;;;;11.69;90.64;96543.69;4890586;29;20425;-74
2022/10/10 01:25:15;;;;;;;;;;;;;;;11.70;90.63;96532.16;4896737;29;19954;-74
2022/10/10 01:27:45;;;;;;;;;;;;;;;11.72;90.61;96536.16;4887155;29;19962;-74
2022/10/10 01:30:13;;;;;;;;;;;;;;;11.74;90.39;96533.31;4890315;29;19967;-74
2022/10/10 01:32:49;;;;;;;;;;;;;;;11.73;90.00;96529.06;4895785;29;19962;-74
2022/10/10 01:35:33;;;;;;;;;;;;;;;11.72;91.11;96536.16;4889018;29;19950;-74
2022/10/10 01:38:04;;;;;;;;;;;;;;;11.72;90.64;96532.75;4890514;29;20337;-75
2022/10/10 01:40:30;;;;;;;;;;;;;;;11.71;90.88;96531.13;4889690;29;19970;-74
2022/10/10 01:42:58;;;;;;;;;;;;;;;11.70;90.87;96532.16;4890481;29;20429;-74
2022/10/10 01:45:25;;;;;;;;;;;;;;;11.71;90.42;96541.63;4884582;29;19988;-74
2022/10/10 01:47:52;;;;;;;;;;;;;;;11.70;91.01;96535.59;4894299;29;19964;-75
2022/10/10 01:50:19;;;;;;;;;;;;;;;11.69;90.92;96541.06;4894695;29;19952;-74
2022/10/10 01:53:04;;;;;;;;;;;;;;;11.65;90.95;96535.44;4890982;29;20003;-74
2022/10/10 01:55:41;;;;;;;;;;;;;;;11.65;90.77;96537.25;4870675;29;20426;-74
2022/10/10 01:58:07;;;;;;;;;;;;;;;11.66;90.59;96536.25;4890075;29;19953;-74
2022/10/10 02:00:37;;;;;;;;;;;;;;;11.66;91.09;96536.25;4891379;29;19973;-74
2022/10/10 02:03:06;;;;;;;;;;;;;;;11.65;90.90;96539.88;4890399;29;19957;-75
2022/10/10 02:05:38;;;;;;;;;;;;;;;11.65;90.75;96532.00;4887362;29;19959;-75
2022/10/10 02:08:13;;;;;;;;;;;;;;;11.63;90.55;96526.19;4890039;29;19952;-74
2022/10/10 02:10:43;;;;;;;;;;;;;;;11.60;90.70;96529.25;4888176;29;20303;-74
2022/10/10 02:13:10;;;;;;;;;;;;;;;11.55;91.33;96535.19;4890254;29;20433;-74
2022/10/10 02:15:44;;;;;;;;;;;;;;;11.55;91.29;96535.19;4889547;29;20307;-75
2022/10/10 02:18:11;;;;;;;;;;;;;;;11.54;92.02;96533.56;4893514;29;20343;-74
2022/10/10 02:20:36;;;;;;;;;;;;;;;11.53;91.53;96531.97;4890328;29;19978;-74
2022/10/10 02:23:04;;;;;;;;;;;;;;;11.53;91.28;96526.72;4883508;29;20003;-74
2022/10/10 02:25:32;;;;;;;;;;;;;;;11.53;91.45;96524.88;4891950;29;20438;-74
2022/10/10 02:28:04;;;;;;;;;;;;;;;11.53;91.38;96524.88;4890875;29;19962;-74
2022/10/10 02:30:33;;;;;;;;;;;;;;;11.55;91.03;96528.09;4885737;29;19952;-74
2022/10/10 02:33:00;;;;;;;;;;;;;;;11.54;91.01;96515.97;4888363;29;19950;-74
2022/10/10 02:35:38;;;;;;;;;;;;;;;11.55;91.06;96522.06;4893907;29;19964;-74
2022/10/10 02:38:05;;;;;;;;;;;;;;;11.53;90.76;96524.88;4893070;29;19961;-75
2022/10/10 02:40:33;;;;;;;;;;;;;;;11.53;91.19;96530.16;4894017;29;19982;-74
2022/10/10 02:43:00;;;;;;;;;;;;;;;11.51;90.95;96532.19;4889158;29;20319;-74
2022/10/10 02:45:27;;;;;;;;;;;;;;;11.50;91.66;96535.81;4890583;29;19977;-75
2022/10/10 02:47:53;;;;;;;;;;;;;;;11.46;91.65;96532.03;4886424;29;19962;-74
2022/10/10 02:50:20;;;;;;;;;;;;;;;11.44;91.71;96533.28;4889832;29;19964;-74
2022/10/10 02:52:46;;;;;;;;;;;;;;;11.45;91.61;96527.81;4893490;29;19969;-75
2022/10/10 02:55:12;;;;;;;;;;;;;;;11.44;92.17;96526.19;4888660;29;20402;-74
2022/10/10 02:57:38;;;;;;;;;;;;;;;11.45;91.39;96527.81;4889530;29;19952;-74
2022/10/10 03:00:04;;;;;;;;;;;;;;;11.45;92.04;96527.81;4891882;29;19982;-74
2022/10/10 03:02:30;;;;;;;;;;;;;;;11.44;91.87;96528.81;4885623;29;19988;-74
2022/10/10 03:04:57;;;;;;;;;;;;;;;11.43;91.65;96527.25;4889039;29;20423;-74
2022/10/10 03:07:23;;;;;;;;;;;;;;;11.42;92.02;96523.00;4890148;29;19954;-74
2022/10/10 03:09:50;;;;;;;;;;;;;;;11.44;91.92;96528.03;4888088;29;19970;-74
2022/10/10 03:12:15;;;;;;;;;;;;;;;11.45;92.28;96529.66;4884414;29;19964;-75
2022/10/10 03:14:41;;;;;;;;;;;;;;;11.45;91.95;96524.41;4887963;29;19968;-74
2022/10/10 03:17:07;;;;;;;;;;;;;;;11.41;92.92;96525.88;4894716;29;19996;-74
2022/10/10 03:19:33;;;;;;;;;;;;;;;11.41;92.94;96528.50;4889479;29;19971;-75
2022/10/10 03:21:59;;;;;;;;;;;;;;;11.40;92.91;96519.78;4884907;29;19954;-74
2022/10/10 03:24:25;;;;;;;;;;;;;;;11.41;93.09;96523.22;4890080;29;19989;-74
2022/10/10 03:26:51;;;;;;;;;;;;;;;11.43;93.67;96529.88;4890392;29;20038;-74
2022/10/10 03:29:17;;;;;;;;;;;;;;;11.43;93.22;96521.19;4897947;29;20407;-74
2022/10/10 03:31:43;;;;;;;;;;;;;;;11.44;93.29;96528.03;4892217;29;19958;-74
2022/10/10 03:34:09;;;;;;;;;;;;;;;11.46;93.38;96526.00;4891850;29;19951;-74
2022/10/10 03:36:35;;;;;;;;;;;;;;;11.45;93.41;96530.44;4890463;29;19957;-74
2022/10/10 03:39:01;;;;;;;;;;;;;;;11.47;93.61;96530.22;4895879;29;20390;-74
2022/10/10 03:41:27;;;;;;;;;;;;;;;11.47;93.54;96527.59;4889359;29;20001;-74
2022/10/10 03:43:52;;;;;;;;;;;;;;;11.48;93.72;96534.44;4892523;29;19994;-74
2022/10/10 03:46:19;;;;;;;;;;;;;;;11.49;93.37;96542.13;4894276;29;20006;-74
2022/10/10 03:48:45;;;;;;;;;;;;;;;11.49;93.37;96534.22;4894154;29;19959;-75
2022/10/10 03:51:11;;;;;;;;;;;;;;;11.47;94.03;96536.28;4887939;29;19965;-74
2022/10/10 03:53:38;;;;;;;;;;;;;;;11.45;93.49;96527.81;4888315;29;19971;-74
2022/10/10 03:56:04;;;;;;;;;;;;;;;11.45;93.93;96530.44;4891791;29;19967;-74
2022/10/10 03:58:30;;;;;;;;;;;;;;;11.43;93.75;96523.81;4893222;29;19966;-74
2022/10/10 04:00:56;;;;;;;;;;;;;;;11.43;93.54;96526.44;4892041;29;20441;-74
2022/10/10 04:03:22;;;;;;;;;;;;;;;11.42;93.41;96520.38;4892408;29;19956;-74
2022/10/10 04:05:49;;;;;;;;;;;;;;;11.42;93.36;96524.81;4892780;29;20341;-75
2022/10/10 04:08:15;;;;;;;;;;;;;;;11.39;92.93;96520.81;4897341;29;19952;-75
2022/10/10 04:10:41;;;;;;;;;;;;;;;11.38;93.45;96527.91;4891574;29;20363;-74
2022/10/10 04:13:06;;;;;;;;;;;;;;;11.36;93.10;96516.81;4891773;29;20054;-74
2022/10/10 04:15:32;;;;;;;;;;;;;;;11.34;92.96;96521.50;4894640;29;19970;-74
2022/10/10 04:17:58;;;;;;;;;;;;;;;11.32;92.95;96518.28;4890846;29;19969;-75
2022/10/10 04:20:24;;;;;;;;;;;;;;;11.30;92.59;96524.78;4891527;29;19965;-75
2022/10/10 04:22:50;;;;;;;;;;;;;;;11.28;92.59;96513.69;4889535;29;20013;-74
2022/10/10 04:25:16;;;;;;;;;;;;;;;11.24;92.52;96509.91;4891592;29;19969;-74
2022/10/10 04:27:42;;;;;;;;;;;;;;;11.22;92.72;96514.56;4894230;29;19963;-75
2022/10/10 04:30:09;;;;;;;;;;;;;;;11.21;92.74;96512.97;4892681;29;19948;-74
2022/10/10 04:32:35;;;;;;;;;;;;;;;11.18;92.77;96514.19;4892552;29;19958;-74
2022/10/10 04:35:02;;;;;;;;;;;;;;;11.15;92.90;96512.81;4887641;29;19970;-74
2022/10/10 04:37:28;;;;;;;;;;;;;;;11.13;92.92;96514.88;4896106;29;19950;-74
2022/10/10 04:39:54;;;;;;;;;;;;;;;11.11;93.48;96510.88;4890154;29;19992;-74
2022/10/10 04:42:20;;;;;;;;;;;;;;;11.11;93.64;96514.28;4891523;29;20343;-74
2022/10/10 04:44:46;;;;;;;;;;;;;;;11.09;94.19;96512.91;4889849;29;19995;-74
2022/10/10 04:47:12;;;;;;;;;;;;;;;11.08;94.66;96506.03;4890053;29;19967;-74
2022/10/10 04:49:40;;;;;;;;;;;;;;;11.08;94.55;96508.66;4893764;29;19962;-74
2022/10/10 04:52:07;;;;;;;;;;;;;;;11.09;95.29;96523.41;4892574;29;19955;-74
2022/10/10 04:54:33;;;;;;;;;;;;;;;11.07;95.93;96521.00;4894324;29;19959;-74
2022/10/10 04:56:59;;;;;;;;;;;;;;;11.08;95.89;96514.72;4888518;29;20333;-74
2022/10/10 04:59:24;;;;;;;;;;;;;;;11.09;96.70;96518.94;4888150;29;19985;-74
2022/10/10 05:01:50;;;;;;;;;;;;;;;11.09;96.12;96520.78;4897574;29;20031;-74
2022/10/10 05:04:16;;;;;;;;;;;;;;;11.08;96.80;96514.72;4892949;29;20053;-75
2022/10/10 05:06:42;;;;;;;;;;;;;;;11.10;96.92;96519.75;4885554;29;19962;-75
2022/10/10 05:09:08;;;;;;;;;;;;;;;11.09;97.76;96518.16;4890880;29;19957;-74
2022/10/10 05:11:34;;;;;;;;;;;;;;;11.08;97.65;96525.19;4895206;29;19954;-74
2022/10/10 05:14:00;;;;;;;;;;;;;;;11.08;97.88;96527.81;4890172;29;19999;-74
2022/10/10 05:16:26;;;;;;;;;;;;;;;11.10;97.97;96532.88;4894872;29;20031;-75
2022/10/10 05:18:52;;;;;;;;;;;;;;;11.11;98.39;96540.53;4889691;29;19970;-75
2022/10/10 05:21:18;;;;;;;;;;;;;;;11.12;98.20;96542.13;4888542;29;20385;-75
2022/10/10 05:23:43;;;;;;;;;;;;;;;11.13;98.48;96538.50;4888484;29;20445;-75
2022/10/10 05:26:09;;;;;;;;;;;;;;;11.15;98.54;96543.53;4892746;29;19988;-75
2022/10/10 05:28:36;;;;;;;;;;;;;;;11.14;98.51;96539.28;4890752;29;20007;-75
2022/10/10 05:31:03;;;;;;;;;;;;;;;11.14;98.24;96542.69;4891327;29;19959;-75
2022/10/10 05:33:29;;;;;;;;;;;;;;;11.16;98.51;96534.63;4891977;29;19967;-75
2022/10/10 05:36:04;;;;;;;;;;;;;;;11.16;98.66;96529.38;4890969;29;20404;-75
2022/10/10 05:38:30;;;;;;;;;;;;;;;11.15;98.38;96528.56;4885987;29;19950;-74
2022/10/10 05:40:56;;;;;;;;;;;;;;;11.16;98.60;96534.63;4892778;29;19976;-75
2022/10/10 05:43:22;;;;;;;;;;;;;;;11.16;98.69;96534.63;4891384;29;19963;-75
2022/10/10 05:45:48;;;;;;;;;;;;;;;11.15;98.68;96528.56;4890586;29;20073;-75
2022/10/10 05:48:14;;;;;;;;;;;;;;;11.15;98.83;96527.78;4890046;29;19961;-75
2022/10/10 05:50:44;;;;;;;;;;;;;;;11.16;98.74;96527.53;4885458;29;20347;-75
2022/10/10 05:53:10;;;;;;;;;;;;;;;11.17;99.02;96521.28;4887659;29;19967;-75
2022/10/10 05:55:36;;;;;;;;;;;;;;;11.20;98.82;96527.13;4889625;29;19955;-74
2022/10/10 05:58:02;;;;;;;;;;;;;;;11.20;100.00;96529.75;4889297;29;19964;-74
2022/10/10 06:00:28;;;;;;;;;;;;;;;11.20;100.00;96527.91;4892251;29;19977;-75
2022/10/10 06:02:54;;;;;;;;;;;;;;;11.20;100.00;96533.16;4890674;29;19960;-75
2022/10/10 06:05:20;;;;;;;;;;;;;;;11.21;100.00;96526.88;4882468;29;19963;-75
2022/10/10 06:07:45;;;;;;;;;;;;;;;11.23;100.00;96532.72;4888555;29;19962;-75
2022/10/10 06:10:11;;;;;;;;;;;;;;;11.25;100.00;96545.63;4889319;29;19968;-75
2022/10/10 06:12:37;;;;;;;;;;;;;;;11.26;100.00;96537.53;4886353;29;19958;-75
2022/10/10 06:15:03;;;;;;;;;;;;;;;11.27;100.00;96546.22;4890255;29;20342;-75
2022/10/10 06:17:29;;;;;;;;;;;;;;;11.28;100.00;96546.00;4890905;29;19954;-75
2022/10/10 06:19:55;;;;;;;;;;;;;;;11.30;100.00;96543.94;4892263;29;19953;-75
2022/10/10 06:22:21;;;;;;;;;;;;;;;11.35;100.00;96551.97;4888528;29;19975;-75
2022/10/10 06:24:47;;;;;;;;;;;;;;;11.41;100.00;96554.75;4883997;29;20036;-75
2022/10/10 06:27:13;;;;;;;;;;;;;;;11.46;100.00;96549.63;4896031;29;20058;-75
2022/10/10 06:29:38;;;;;;;;;;;;;;;11.50;100.00;96556.84;4892226;29;19997;-75
2022/10/10 06:32:04;;;;;;;;;;;;;;;11.55;100.00;96561.44;4887328;29;20094;-75
2022/10/10 06:34:30;;;;;;;;;;;;;;;11.58;100.00;96556.53;4892009;29;19964;-75
2022/10/10 06:36:56;;;;;;;;;;;;;;;11.61;100.00;96555.28;4888945;29;19958;-75
2022/10/10 06:39:22;;;;;;;;;;;;;;;11.63;100.00;96555.88;4891546;29;19971;-75
2022/10/10 06:41:48;;;;;;;;;;;;;;;11.68;100.00;96565.72;4886626;29;20033;-75
2022/10/10 06:44:15;;;;;;;;;;;;;;;11.71;100.00;96565.28;4883547;29;19959;-75
2022/10/10 06:46:41;;;;;;;;;;;;;;;11.74;100.00;96567.47;4894782;29;20521;-74
2022/10/10 06:49:07;;;;;;;;;;;;;;;11.79;100.00;96573.66;4888949;29;19957;-75
2022/10/10 06:51:33;;;;;;;;;;;;;;;11.86;100.00;96567.50;4884148;29;20015;-75
2022/10/10 06:53:59;;;;;;;;;;;;;;;11.90;100.00;96573.94;4894799;29;19959;-75
2022/10/10 06:56:25;;;;;;;;;;;;;;;11.93;100.00;96581.41;4890616;29;20005;-75
2022/10/10 06:58:51;;;;;;;;;;;;;;;11.97;100.00;96586.00;4889703;29;20327;-75
2022/10/10 07:01:17;;;;;;;;;;;;;;;12.01;100.00;96583.72;4887817;29;20009;-75
2022/10/10 07:03:43;;;;;;;;;;;;;;;12.06;100.00;96583.06;4888847;29;19962;-78
2022/10/10 07:06:10;;;;;;;;;;;;;;;12.08;100.00;96586.25;4894895;29;20007;-77
2022/10/10 07:08:36;;;;;;;;;;;;;;;12.09;100.00;96580.75;4889818;29;19967;-77
2022/10/10 07:11:03;;;;;;;;;;;;;;;12.12;100.00;96595.31;4883776;29;19962;-78
2022/10/10 07:13:29;;;;;;;;;;;;;;;12.14;100.00;96591.41;4889477;29;19958;-78
2022/10/10 07:15:54;;;;;;;;;;;;;;;12.15;100.00;96592.22;4892637;29;20435;-75
2022/10/10 07:18:20;;;;;;;;;;;;;;;12.15;100.00;96589.59;4889336;29;20008;-75
2022/10/10 07:20:46;;;;;;;;;;;;;;;12.15;100.00;96594.84;4890039;29;19977;-75
2022/10/10 07:23:13;;;;;;;;;;;;;;;12.15;100.00;96600.88;4891624;29;19960;-75
2022/10/10 07:25:39;;;;;;;;;;;;;;;12.17;100.00;96606.72;4887658;29;19960;-75
2022/10/10 07:28:06;;;;;;;;;;;;;;;12.21;100.00;96607.09;4890107;29;19953;-75
2022/10/10 07:30:32;;;;;;;;;;;;;;;12.24;100.00;96609.28;4894506;29;19954;-75
2022/10/10 07:32:58;;;;;;;;;;;;;;;12.26;100.00;96609.03;4894037;29;19962;-75
2022/10/10 07:35:24;;;;;;;;;;;;;;;12.30;100.00;96610.19;4889046;29;19956;-75
2022/10/10 07:37:54;;;;;;;;;;;;;;;12.34;100.00;96616.63;4888193;29;20442;-75
2022/10/10 07:40:21;;;;;;;;;;;;;;;12.38;100.00;96613.31;4868044;29;20338;-75
2022/10/10 07:42:46;;;;;;;;;;;;;;;12.42;100.00;96621.56;4889160;29;19958;-75
2022/10/10 07:45:12;;;;;;;;;;;;;;;12.47;100.00;96623.50;4887376;29;20453;-75
2022/10/10 07:47:39;;;;;;;;;;;;;;;12.53;100.00;96612.88;4892114;29;19963;-75
2022/10/10 07:50:06;;;;;;;;;;;;;;;12.61;100.00;96626.75;4890549;29;19987;-75
2022/10/10 07:52:33;;;;;;;;;;;;;;;12.67;100.00;96631.13;4891161;29;19986;-75
2022/10/10 07:54:59;;;;;;;;;;;;;;;12.71;100.00;96632.28;4893986;29;19956;-75
2022/10/10 07:57:25;;;;;;;;;;;;;;;12.76;100.00;96625.28;4887157;29;19962;-75
2022/10/10 07:59:51;;;;;;;;;;;;;;;12.82;100.00;96628.84;4882735;29;20322;-75
2022/10/10 08:02:17;;;;;;;;;;;;;;;12.86;100.00;96629.97;4886780;29;20139;-75
2022/10/10 08:04:43;;;;;;;;;;;;;;;12.88;100.00;96635.03;4891628;29;20333;-75
2022/10/10 08:07:09;;;;;;;;;;;;;;;12.92;100.00;96636.19;4890014;29;19958;-75
2022/10/10 08:09:35;;;;;;;;;;;;;;;12.95;100.00;96636.50;4890800;29;19970;-75
2022/10/10 08:12:00;;;;;;;;;;;;;;;12.96;99.83;96637.34;4890467;29;19962;-75
2022/10/10 08:14:26;;;;;;;;;;;;;;;12.96;99.20;96637.34;4890869;29;19976;-75
2022/10/10 08:16:52;;;;;;;;;;;;;;;12.97;99.33;96633.66;4891076;29;19964;-75
2022/10/10 08:19:18;;;;;;;;;;;;;;;12.99;99.70;96636.84;4897470;29;20007;-75
2022/10/10 08:21:44;;;;;;;;;;;;;;;13.00;99.47;96633.22;4891074;29;20422;-75
2022/10/10 08:24:10;;;;;;;;;;;;;;;13.01;99.95;96629.53;4888366;29;20012;-75
2022/10/10 08:26:36;;;;;;;;;;;;;;;13.03;99.65;96624.84;4894659;29;19963;-75
2022/10/10 08:29:01;;;;;;;;;;;;;;;13.08;98.87;96624.16;4892747;29;20016;-75
2022/10/10 08:31:29;;;;;;;;;;;;;;;13.13;99.40;96632.19;4885307;29;20041;-75
2022/10/10 08:33:55;;;;;;;;;;;;;;;13.17;97.59;96622.78;4897727;29;20322;-75
2022/10/10 08:36:22;;;;;;;;;;;;;;;13.21;97.74;96626.56;4888846;29;20340;-75
2022/10/10 08:38:48;;;;;;;;;;;;;;;13.27;98.38;96623.03;4892628;29;19960;-75
2022/10/10 08:41:23;;;;;;;;;;;;;;;13.35;98.44;96621.88;4887817;29;19975;-75
2022/10/10 08:44:04;;;;;;;;;;;;;;;13.43;100.00;96626.00;4896301;29;20308;-75
2022/10/10 08:46:56;;;;;;;;;;;;;;;13.50;97.96;96624.88;4892886;29;19986;-75
2022/10/10 08:49:26;;;;;;;;;;;;;;;13.53;97.60;96621.75;4867604;29;20389;-75
2022/10/10 08:52:04;;;;;;;;;;;;;;;13.53;97.64;96621.75;4894394;29;19961;-75
2022/10/10 08:54:31;;;;;;;;;;;;;;;13.55;96.99;96629.44;4895630;29;19965;-75
2022/10/10 08:56:59;;;;;;;;;;;;;;;13.59;97.73;96617.41;4887183;29;19949;-75
2022/10/10 08:59:28;;;;;;;;;;;;;;;13.61;97.41;96615.31;4891806;29;19956;-75
2022/10/10 09:02:03;;;;;;;;;;;;;;;13.67;98.64;96624.13;4890787;29;19972;-75
2022/10/10 09:04:32;;;;;;;;;;;;;;;13.71;98.09;96620.81;4885198;29;19958;-75
2022/10/10 09:07:06;;;;;;;;;;;;;;;13.78;97.49;96633.84;4877894;29;19962;-75
2022/10/10 09:09:43;;;;;;;;;;;;;;;13.86;97.53;96632.66;4884998;29;19957;-75
2022/10/10 09:12:20;;;;;;;;;;;;;;;13.89;96.32;96627.72;4891657;29;19963;-75
2022/10/10 09:15:05;;;;;;;;;;;;;;;13.89;96.08;96635.63;4890945;29;19976;-75
2022/10/10 09:17:37;;;;;;;;;;;;;;;13.95;96.48;96628.63;4893475;29;20326;-75
2022/10/10 09:20:35;;;;;;;;;;;;;;;14.01;97.70;96632.97;4889263;29;19963;-75
2022/10/10 09:23:04;;;;;;;;;;;;;;;14.08;96.64;96628.34;4852194;29;20341;-75
2022/10/10 09:25:34;;;;;;;;;;;;;;;14.13;97.28;96635.56;4887682;29;19962;-75
2022/10/10 09:28:05;;;;;;;;;;;;;;;14.18;96.54;96628.53;4891088;29;19952;-75
2022/10/10 09:30:33;;;;;;;;;;;;;;;14.27;96.04;96636.09;4888932;29;20453;-75
2022/10/10 09:33:08;;;;;;;;;;;;;;;14.30;95.53;96633.78;4896411;29;19953;-76
2022/10/10 09:35:36;;;;;;;;;;;;;;;14.36;96.57;96640.75;4888315;29;19958;-75
2022/10/10 09:38:16;;;;;;;;;;;;;;;14.44;97.24;96646.66;4888228;29;19981;-75
2022/10/10 09:40:46;;;;;;;;;;;;;;;14.52;96.38;96644.44;4894816;29;20395;-75
2022/10/10 09:43:18;;;;;;;;;;;;;;;14.63;96.47;96642.00;4894738;29;20317;-75
2022/10/10 09:45:57;;;;;;;;;;;;;;;14.71;95.79;96637.13;4879750;29;20057;-75
2022/10/10 09:48:33;;;;;;;;;;;;;;;14.78;95.89;96636.97;4886654;29;19955;-75
2022/10/10 09:51:01;;;;;;;;;;;;;;;14.89;95.92;96640.56;4889295;29;19959;-75
2022/10/10 09:53:27;;;;;;;;;;;;;;;14.99;95.54;96640.72;4890428;29;19978;-75
2022/10/10 09:55:53;;;;;;;;;;;;;;;15.04;94.81;96635.53;4895819;29;19963;-75
2022/10/10 09:58:30;;;;;;;;;;;;;;;15.09;93.79;96634.81;4884002;29;19963;-75
2022/10/10 10:01:34;;;;;;;;;;;;;;;15.15;94.34;96626.72;4888003;29;20004;-75
2022/10/10 10:04:09;;;;;;;;;;;;;;;15.20;94.04;96629.44;4850570;29;19967;-76
2022/10/10 10:06:35;;;;;;;;;;;;;;;15.29;95.43;96640.41;4856745;29;19959;-75
2022/10/10 10:09:03;;;;;;;;;;;;;;;15.34;93.13;96632.53;4855641;29;20033;-75
2022/10/10 10:11:34;;;;;;;;;;;;;;;15.38;92.96;96638.91;4893169;29;19961;-75
2022/10/10 10:14:02;;;;;;;;;;;;;;;15.40;92.69;96636.84;4890500;29;19958;-75
2022/10/10 10:16:30;;;;;;;;;;;;;;;15.45;93.68;96636.09;4879867;29;19967;-75
2022/10/10 10:18:56;;;;;;;;;;;;;;;15.52;92.76;96635.94;4884160;29;19976;-75
2022/10/10 10:21:23;;;;;;;;;;;;;;;15.56;93.31;96637.84;4889047;29;19972;-75
2022/10/10 10:23:58;;;;;;;;;;;;;;;15.63;93.90;96642.97;4894205;29;20339;-75
2022/10/10 10:26:33;;;;;;;;;;;;;;;15.70;93.79;96638.28;4891726;29;19955;-75
2022/10/10 10:28:59;;;;;;;;;;;;;;;15.72;93.27;96638.06;4887110;29;19950;-75
2022/10/10 10:31:31;;;;;;;;;;;;;;;15.72;92.84;96630.94;4889387;29;19969;-75
2022/10/10 10:34:00;;;;;;;;;;;;;;;15.73;93.03;96643.13;4893981;29;19965;-76
2022/10/10 10:36:41;;;;;;;;;;;;;;;15.85;94.82;96650.13;4890006;29;19957;-75
2022/10/10 10:39:23;;;;;;;;;;;;;;;16.09;93.49;96645.38;4888071;29;19959;-75
2022/10/10 10:41:49;;;;;;;;;;;;;;;16.35;91.38;96641.16;4886481;29;19959;-75
2022/10/10 10:44:34;;;;;;;;;;;;;;;16.54;89.51;96631.78;4886747;29;19965;-76
2022/10/10 10:47:02;;;;;;;;;;;;;;;16.73;88.92;96637.50;4890661;29;19964;-75
2022/10/10 10:49:58;;;;;;;;;;;;;;;16.92;85.51;96616.78;4890850;29;19951;-75
2022/10/10 10:52:35;;;;;;;;;;;;;;;17.16;87.42;96627.03;4845525;29;19956;-75
2022/10/10 10:55:17;;;;;;;;;;;;;;;17.39;85.44;96617.88;4895291;29;19961;-75
2022/10/10 10:58:06;;;;;;;;;;;;;;;17.62;84.63;96608.72;4872108;29;19952;-75
2022/10/10 11:00:40;;;;;;;;;;;;;;;17.75;82.37;96604.78;4889122;29;20277;-75
2022/10/10 11:03:24;;;;;;;;;;;;;;;17.78;81.98;96597.09;4889605;29;20002;-75
2022/10/10 11:05:59;;;;;;;;;;;;;;;17.88;82.05;96598.22;4889923;29;19966;-75
2022/10/10 11:08:28;;;;;;;;;;;;;;;18.02;83.44;96605.44;4885987;29;19958;-75
2022/10/10 11:11:09;;;;;;;;;;;;;;;18.03;81.39;96601.72;4887604;29;19972;-75
2022/10/10 11:13:35;;;;;;;;;;;;;;;18.11;80.49;96581.03;4890171;29;20345;-75
2022/10/10 11:16:11;;;;;;;;;;;;;;;18.16;80.31;96583.69;4888649;29;19961;-75
2022/10/10 11:18:43;;;;;;;;;;;;;;;18.24;80.03;96581.31;4892658;29;19962;-76
2022/10/10 11:21:22;;;;;;;;;;;;;;;18.35;81.25;96592.78;4872062;29;19959;-75
2022/10/10 11:23:48;;;;;;;;;;;;;;;18.48;78.80;96566.72;4885975;29;19956;-76
2022/10/10 11:26:20;;;;;;;;;;;;;;;18.61;79.17;96574.19;4890294;29;19951;-75
2022/10/10 11:28:54;;;;;;;;;;;;;;;18.68;78.17;96566.75;4891917;29;19965;-75
2022/10/10 11:31:23;;;;;;;;;;;;;;;18.77;78.14;96557.19;4889937;29;19954;-75
2022/10/10 11:33:53;;;;;;;;;;;;;;;18.84;76.00;96546.31;4885799;29;19954;-75
2022/10/10 11:36:30;;;;;;;;;;;;;;;18.90;77.32;96561.19;4886990;29;19959;-75
2022/10/10 11:39:01;;;;;;;;;;;;;;;19.01;77.42;96560.09;4888038;29;20411;-75
2022/10/10 11:41:43;;;;;;;;;;;;;;;19.08;75.96;96546.50;4892888;29;19974;-76
2022/10/10 11:44:12;;;;;;;;;;;;;;;19.21;76.38;96545.16;4888518;29;19957;-75
2022/10/10 11:46:40;;;;;;;;;;;;;;;19.32;76.81;96549.38;4890289;29;20346;-75
2022/10/10 11:49:12;;;;;;;;;;;;;;;19.38;71.56;96499.63;4892316;29;19972;-75
2022/10/10 11:51:38;;;;;;;;;;;;;;;19.39;72.14;96504.66;4887730;29;19960;-75
2022/10/10 11:54:07;;;;;;;;;;;;;;;19.45;74.57;96530.19;4893126;29;19955;-75
2022/10/10 11:56:38;;;;;;;;;;;;;;;19.57;73.30;96518.41;4894283;29;19959;-75
2022/10/10 11:59:14;;;;;;;;;;;;;;;19.46;71.60;96507.84;4889160;29;19963;-75
2022/10/10 12:01:44;;;;;;;;;;;;;;;19.44;74.66;96530.44;4892878;29;20432;-75
2022/10/10 12:04:09;;;;;;;;;;;;;;;19.56;72.57;96503.53;4890462;29;19952;-75
2022/10/10 12:06:43;;;;;;;;;;;;;;;19.68;73.56;96515.44;4892893;29;20478;-74
2022/10/10 12:09:19;;;;;;;;;;;;;;;19.65;73.22;96507.19;4897403;29;19963;-74
2022/10/10 12:11:51;;;;;;;;;;;;;;;19.63;71.28;96496.84;4892987;29;19960;-73
2022/10/10 12:14:18;;;;;;;;;;;;;;;19.71;71.04;96492.84;4892251;29;19955;-73
2022/10/10 12:16:44;;;;;;;;;;;;;;;19.77;71.11;96494.41;4889791;29;19960;-74
2022/10/10 12:19:16;;;;;;;;;;;;;;;19.78;69.95;96493.34;4896624;29;19957;-74
2022/10/10 12:21:57;;;;;;;;;;;;;;;19.83;70.35;96503.94;4889542;29;19980;-74
2022/10/10 12:24:31;;;;;;;;;;;;;;;19.86;70.21;96490.09;4891669;29;19955;-74
2022/10/10 12:26:56;;;;;;;;;;;;;;;19.77;59.94;96395.16;4891016;29;20005;-73
2022/10/10 12:29:41;;;;;;;;;;;;;;;19.70;67.76;96480.63;4890098;29;19964;-73
2022/10/10 12:32:13;;;;;;;;;;;;;;;19.65;64.95;96454.00;4890898;29;20339;-74
2022/10/10 12:34:42;;;;;;;;;;;;;;;19.59;60.85;96416.00;4895051;29;19966;-73
2022/10/10 12:37:16;;;;;;;;;;;;;;;19.47;60.59;96506.75;4894449;29;19955;-73
2022/10/10 12:40:00;;;;;;;;;;;;;;;19.36;59.08;96507.06;4891343;29;19963;-73
2022/10/10 12:42:28;;;;;;;;;;;;;;;19.45;59.09;96506.25;4893387;29;19985;-73
2022/10/10 12:44:53;;;;;;;;;;;;;;;19.61;55.19;96493.69;4892502;29;19986;-73
2022/10/10 12:47:26;;;;;;;;;;;;;;;19.67;55.59;96497.91;4885058;29;19970;-73
2022/10/10 12:49:54;;;;;;;;;;;;;;;19.63;57.67;96522.63;4891572;29;19963;-73
2022/10/10 12:52:26;;;;;;;;;;;;;;;19.57;55.94;96508.59;4893747;29;19957;-73
2022/10/10 12:54:53;;;;;;;;;;;;;;;19.55;57.83;96521.38;4892316;29;19957;-73